Time;durP1;ratioP1;P1;durP2;ratioP2;P2;SDS_P1;SDS_P2;PMS_P1;PMS_P2;Temp;Humidity;BMP_temperature;BMP_pressure;BME280_temperature;BME280_humidity;BME280_pressure;Samples;Min_cycle;Max_cycle;Signal;HPM_P1;HPM_P2
2023/04/17 00:02:03;;;;;;;22.65;11.48;;;8.30;99.90;;;;;;4987530;28;20038;-64
2023/04/17 00:04:29;;;;;;;20.38;11.13;;;8.30;99.90;;;;;;4987499;28;20033;-65
2023/04/17 00:06:55;;;;;;;19.85;10.15;;;8.30;99.90;;;;;;4988189;28;20062;-66
2023/04/17 00:09:21;;;;;;;22.83;11.70;;;8.30;99.90;;;;;;4988893;28;20093;-66
2023/04/17 00:11:47;;;;;;;22.17;11.30;;;8.30;99.90;;;;;;4987435;28;20065;-65
2023/04/17 00:14:12;;;;;;;22.70;10.88;;;8.30;99.90;;;;;;4987695;28;20495;-65
2023/04/17 00:16:38;;;;;;;22.10;10.93;;;8.30;99.90;;;;;;4988933;28;20030;-65
2023/04/17 00:19:04;;;;;;;20.98;10.57;;;8.30;99.90;;;;;;4986784;28;20070;-64
2023/04/17 00:21:30;;;;;;;24.05;10.82;;;8.30;99.90;;;;;;4987790;28;20213;-65
2023/04/17 00:23:56;;;;;;;21.52;10.77;;;8.30;99.90;;;;;;4985693;28;20077;-65
2023/04/17 00:26:22;;;;;;;20.48;9.75;;;8.20;99.90;;;;;;4989668;28;20031;-65
2023/04/17 00:28:49;;;;;;;22.10;10.82;;;8.30;99.90;;;;;;4989358;28;20109;-64
2023/04/17 00:31:15;;;;;;;23.02;10.75;;;8.20;99.90;;;;;;4989624;28;20035;-64
2023/04/17 00:33:41;;;;;;;22.02;9.95;;;8.20;99.90;;;;;;4987284;28;20491;-64
2023/04/17 00:36:07;;;;;;;22.02;9.85;;;8.20;99.90;;;;;;4987347;28;20035;-64
2023/04/17 00:38:33;;;;;;;18.05;9.63;;;8.20;99.90;;;;;;4986874;28;20034;-64
2023/04/17 00:40:58;;;;;;;19.30;9.95;;;8.20;99.90;;;;;;4988596;28;20049;-64
2023/04/17 00:43:24;;;;;;;22.45;10.70;;;8.10;99.90;;;;;;4987917;28;20030;-65
2023/04/17 00:45:50;;;;;;;21.65;10.35;;;8.20;99.90;;;;;;4986006;28;20030;-67
2023/04/17 00:48:18;;;;;;;20.92;9.88;;;8.10;99.90;;;;;;4987288;28;20478;-64
2023/04/17 00:50:44;;;;;;;22.13;10.25;;;8.10;99.90;;;;;;4984625;28;20041;-66
2023/04/17 00:53:12;;;;;;;21.05;9.93;;;8.10;99.90;;;;;;4985967;28;20911;-65
2023/04/17 00:55:40;;;;;;;21.90;9.82;;;8.10;99.90;;;;;;4987156;28;20034;-64
2023/04/17 00:58:06;;;;;;;22.25;10.00;;;8.10;99.90;;;;;;4986863;28;20073;-64
2023/04/17 01:00:32;;;;;;;20.98;10.35;;;8.10;99.90;;;;;;4986149;28;20038;-65
2023/04/17 01:02:57;;;;;;;19.77;10.27;;;8.10;99.90;;;;;;4987894;28;20066;-64
2023/04/17 01:05:24;;;;;;;21.45;10.93;;;8.00;99.90;;;;;;4988417;28;20026;-64
2023/04/17 01:07:50;;;;;;;19.95;10.10;;;8.00;99.90;;;;;;4988668;28;20050;-65
2023/04/17 01:10:16;;;;;;;23.80;10.70;;;8.10;99.90;;;;;;4985356;28;20352;-65
2023/04/17 01:12:45;;;;;;;23.48;10.88;;;8.10;99.90;;;;;;4988691;28;20037;-65
2023/04/17 01:15:11;;;;;;;19.65;10.63;;;8.10;99.90;;;;;;4986205;28;20821;-65
2023/04/17 01:17:37;;;;;;;21.63;10.32;;;8.10;99.90;;;;;;4989367;28;20026;-63
2023/04/17 01:20:06;;;;;;;20.13;10.15;;;8.10;99.90;;;;;;4986968;28;20034;-63
2023/04/17 01:22:32;;;;;;;25.27;11.65;;;8.10;99.90;;;;;;4986300;28;20316;-66
2023/04/17 01:24:57;;;;;;;23.45;11.48;;;8.10;99.90;;;;;;4985601;28;20124;-65
2023/04/17 01:27:23;;;;;;;24.05;11.05;;;8.10;99.90;;;;;;4987753;28;20034;-64
2023/04/17 01:29:49;;;;;;;24.10;11.43;;;8.10;99.90;;;;;;4986599;28;20042;-64
2023/04/17 01:32:16;;;;;;;26.67;12.05;;;8.10;99.90;;;;;;4987559;28;20569;-64
2023/04/17 01:34:41;;;;;;;24.95;12.77;;;8.10;99.90;;;;;;4986786;28;20030;-64
2023/04/17 01:37:07;;;;;;;25.20;11.48;;;8.10;99.90;;;;;;4986274;28;20064;-62
2023/04/17 01:39:34;;;;;;;24.17;12.32;;;8.10;99.90;;;;;;4987450;28;20062;-63
2023/04/17 01:42:00;;;;;;;25.17;11.88;;;8.10;99.90;;;;;;4984658;28;20122;-64
2023/04/17 01:44:25;;;;;;;23.67;11.95;;;8.00;99.90;;;;;;4986949;28;20058;-63
2023/04/17 01:46:51;;;;;;;25.60;12.25;;;8.00;99.90;;;;;;4988429;28;20042;-63
2023/04/17 01:49:16;;;;;;;24.35;11.73;;;8.00;99.90;;;;;;4985579;28;20877;-64
2023/04/17 01:51:42;;;;;;;27.38;12.45;;;8.00;99.90;;;;;;4987360;28;20442;-63
2023/04/17 01:54:08;;;;;;;22.35;11.38;;;8.00;99.90;;;;;;4983663;28;20023;-63
2023/04/17 01:56:33;;;;;;;24.33;11.93;;;8.00;99.90;;;;;;4986805;28;20114;-65
2023/04/17 01:58:59;;;;;;;24.88;11.20;;;8.00;99.90;;;;;;4986646;28;20049;-67
2023/04/17 02:01:25;;;;;;;23.98;11.90;;;8.00;99.90;;;;;;4979429;28;20046;-65
2023/04/17 02:03:50;;;;;;;28.65;12.55;;;8.00;99.90;;;;;;4986414;28;20034;-65
2023/04/17 02:06:16;;;;;;;29.35;12.65;;;8.00;99.90;;;;;;4988098;28;20628;-65
2023/04/17 02:08:41;;;;;;;26.20;12.82;;;8.00;99.90;;;;;;4990583;28;20084;-65
2023/04/17 02:11:08;;;;;;;27.08;12.52;;;7.90;99.90;;;;;;4989054;28;20030;-65
2023/04/17 02:13:34;;;;;;;25.33;11.77;;;7.90;99.90;;;;;;4990520;28;20036;-67
2023/04/17 02:16:00;;;;;;;24.38;12.13;;;8.00;99.90;;;;;;4987401;28;20035;-65
2023/04/17 02:18:27;;;;;;;26.08;12.50;;;7.90;99.90;;;;;;4989895;28;20026;-65
2023/04/17 02:20:52;;;;;;;26.52;12.82;;;7.90;99.90;;;;;;4988788;28;20073;-65
2023/04/17 02:23:18;;;;;;;25.40;12.50;;;7.90;99.90;;;;;;4989569;28;20228;-63
2023/04/17 02:25:44;;;;;;;26.23;12.90;;;7.90;99.90;;;;;;4990828;28;20428;-63
2023/04/17 02:28:10;;;;;;;28.63;13.23;;;7.90;99.90;;;;;;4989940;28;20122;-67
2023/04/17 02:30:35;;;;;;;24.13;12.50;;;7.90;99.90;;;;;;4989218;28;20149;-65
2023/04/17 02:33:01;;;;;;;27.20;12.85;;;7.90;99.90;;;;;;4990772;28;20105;-63
2023/04/17 02:35:29;;;;;;;27.10;13.10;;;7.90;99.90;;;;;;4991634;28;20113;-63
2023/04/17 02:37:54;;;;;;;28.65;13.02;;;7.90;99.90;;;;;;4990242;28;20034;-63
2023/04/17 02:40:20;;;;;;;26.13;12.68;;;7.90;99.90;;;;;;4989997;28;20586;-65
2023/04/17 02:42:46;;;;;;;25.00;12.15;;;7.80;99.90;;;;;;4991133;28;20022;-63
2023/04/17 02:45:11;;;;;;;26.33;12.85;;;7.90;99.90;;;;;;4990321;28;20046;-63
2023/04/17 02:47:37;;;;;;;23.25;11.70;;;7.90;99.90;;;;;;4992133;28;20585;-64
2023/04/17 02:50:04;;;;;;;26.80;12.55;;;7.90;99.90;;;;;;4989801;28;20038;-64
2023/04/17 02:52:32;;;;;;;26.45;11.85;;;7.90;99.90;;;;;;4990100;28;20026;-64
2023/04/17 02:54:57;;;;;;;25.75;12.48;;;7.90;99.90;;;;;;4985333;28;20030;-66
2023/04/17 02:57:23;;;;;;;27.40;12.57;;;7.90;99.90;;;;;;4984837;28;20046;-65
2023/04/17 02:59:50;;;;;;;27.80;12.43;;;7.90;99.90;;;;;;4988546;28;20026;-66
2023/04/17 03:02:20;;;;;;;25.05;11.85;;;7.90;99.90;;;;;;4986959;28;20526;-64
2023/04/17 03:04:48;;;;;;;18.83;8.60;;;7.90;99.90;;;;;;5006646;28;20374;-64
2023/04/17 03:07:17;;;;;;;25.75;12.15;;;7.90;99.90;;;;;;4981962;28;20488;-63
2023/04/17 03:09:46;;;;;;;24.42;12.50;;;7.90;99.90;;;;;;4988787;28;20038;-64
2023/04/17 03:12:13;;;;;;;25.27;12.68;;;7.90;99.90;;;;;;4986727;28;20630;-63
2023/04/17 03:14:39;;;;;;;25.08;12.82;;;7.90;99.90;;;;;;4990284;28;20499;-63
2023/04/17 03:17:05;;;;;;;27.48;12.23;;;7.90;99.90;;;;;;4989076;28;20427;-65
2023/04/17 03:19:30;;;;;;;25.92;12.30;;;7.90;99.90;;;;;;4989890;28;20038;-64
2023/04/17 03:21:56;;;;;;;30.00;13.52;;;7.90;99.90;;;;;;5007182;28;20163;-63
2023/04/17 03:24:22;;;;;;;28.25;13.57;;;7.80;99.90;;;;;;5010008;28;20022;-64
2023/04/17 03:26:47;;;;;;;28.13;13.13;;;7.90;99.90;;;;;;4995500;28;20599;-64
2023/04/17 03:29:13;;;;;;;28.88;13.75;;;7.90;99.90;;;;;;4989765;28;20038;-64
2023/04/17 03:31:39;;;;;;;29.13;13.32;;;7.90;99.90;;;;;;4991265;28;20030;-63
2023/04/17 03:34:04;;;;;;;32.45;14.55;;;7.90;99.90;;;;;;4986693;28;20057;-64
2023/04/17 03:36:31;;;;;;;32.67;14.07;;;7.80;99.90;;;;;;4989552;28;20034;-65
2023/04/17 03:38:56;;;;;;;31.38;13.73;;;7.90;99.90;;;;;;4988154;28;20048;-64
2023/04/17 03:41:22;;;;;;;29.90;14.07;;;7.90;99.90;;;;;;4988367;28;20117;-64
2023/04/17 03:43:48;;;;;;;30.52;14.40;;;7.90;99.90;;;;;;4988797;28;20036;-63
2023/04/17 03:46:14;;;;;;;34.17;15.13;;;7.90;99.90;;;;;;4987200;28;20510;-65
2023/04/17 03:48:40;;;;;;;34.33;14.23;;;7.90;99.90;;;;;;4989033;28;20157;-65
2023/04/17 03:51:05;;;;;;;33.05;14.73;;;7.90;99.90;;;;;;4989583;28;20522;-64
2023/04/17 03:53:31;;;;;;;33.05;14.63;;;7.90;99.90;;;;;;4987763;28;20030;-63
2023/04/17 03:55:57;;;;;;;30.85;13.75;;;7.90;99.90;;;;;;4989782;28;20643;-64
2023/04/17 03:58:22;;;;;;;33.38;14.65;;;7.90;99.90;;;;;;4979008;28;20088;-63
2023/04/17 04:00:49;;;;;;;29.42;14.40;;;7.90;99.90;;;;;;4990118;28;20391;-67
2023/04/17 04:03:15;;;;;;;31.92;14.57;;;7.90;99.90;;;;;;4988988;28;20084;-65
2023/04/17 04:05:40;;;;;;;29.45;14.18;;;7.90;99.90;;;;;;4987968;28;20042;-64
2023/04/17 04:08:06;;;;;;;31.33;14.02;;;7.90;99.90;;;;;;4986750;28;20247;-64
2023/04/17 04:10:31;;;;;;;31.10;13.75;;;7.80;99.90;;;;;;4990324;28;20061;-66
2023/04/17 04:12:57;;;;;;;31.60;13.95;;;7.90;99.90;;;;;;4990207;28;20034;-66
2023/04/17 04:15:23;;;;;;;28.27;13.43;;;7.90;99.90;;;;;;4989281;28;20619;-65
2023/04/17 04:17:48;;;;;;;29.13;13.00;;;7.80;99.90;;;;;;4988478;28;20084;-66
2023/04/17 04:20:14;;;;;;;32.00;13.30;;;7.80;99.90;;;;;;4986999;28;20030;-64
2023/04/17 04:22:40;;;;;;;29.17;14.05;;;7.90;99.90;;;;;;4988732;28;20753;-65
2023/04/17 04:25:06;;;;;;;29.77;14.43;;;7.90;99.90;;;;;;4988167;28;20180;-66
2023/04/17 04:27:32;;;;;;;30.55;13.52;;;7.80;99.90;;;;;;4989560;28;20133;-63
2023/04/17 04:30:01;;;;;;;30.75;13.63;;;7.90;99.90;;;;;;4989455;28;20538;-64
2023/04/17 04:32:27;;;;;;;30.20;13.75;;;7.90;99.90;;;;;;4987749;28;20058;-64
2023/04/17 04:34:55;;;;;;;31.80;14.05;;;7.80;99.90;;;;;;4989408;28;20041;-63
2023/04/17 04:37:28;;;;;;;29.77;13.23;;;7.90;99.90;;;;;;4988888;28;20121;-65
2023/04/17 04:40:00;;;;;;;34.25;13.82;;;7.80;99.90;;;;;;4983486;28;20133;-64
2023/04/17 04:42:30;;;;;;;34.45;14.27;;;7.80;99.90;;;;;;4988928;28;20034;-64
2023/04/17 04:44:56;;;;;;;29.90;13.35;;;7.80;99.90;;;;;;4989244;28;20035;-64
2023/04/17 04:47:21;;;;;;;31.88;13.52;;;7.90;99.90;;;;;;4988294;28;20033;-64
2023/04/17 04:49:47;;;;;;;28.25;13.13;;;7.80;99.90;;;;;;4988296;28;20042;-63
2023/04/17 04:52:13;;;;;;;28.60;12.93;;;7.80;99.90;;;;;;5003160;28;20037;-63
2023/04/17 04:54:38;;;;;;;27.10;13.02;;;7.80;99.90;;;;;;4988562;28;20402;-66
2023/04/17 04:57:04;;;;;;;28.13;13.02;;;7.80;99.90;;;;;;4986098;28;20101;-67
2023/04/17 04:59:30;;;;;;;27.40;12.95;;;7.80;99.90;;;;;;4988263;28;20509;-68
2023/04/17 05:01:55;;;;;;;31.75;14.38;;;7.90;99.90;;;;;;4985364;28;20045;-67
2023/04/17 05:04:21;;;;;;;28.98;12.50;;;7.90;99.90;;;;;;4986710;28;20034;-65
2023/04/17 05:06:46;;;;;;;28.35;12.60;;;7.80;99.90;;;;;;4987824;28;20054;-65
2023/04/17 05:09:12;;;;;;;25.23;12.18;;;7.80;99.90;;;;;;4988523;28;20068;-66
2023/04/17 05:11:38;;;;;;;34.72;14.55;;;7.90;99.90;;;;;;4983128;28;20088;-65
2023/04/17 05:14:03;;;;;;;29.52;13.20;;;7.90;99.90;;;;;;4989068;28;20109;-65
2023/04/17 05:16:29;;;;;;;29.98;13.45;;;7.90;99.90;;;;;;4987524;28;20102;-65
2023/04/17 05:18:55;;;;;;;30.60;13.88;;;7.90;99.90;;;;;;4988025;28;20663;-65
2023/04/17 05:21:21;;;;;;;31.00;13.20;;;7.90;99.90;;;;;;4988187;28;20045;-65
2023/04/17 05:23:47;;;;;;;28.70;13.40;;;7.90;99.90;;;;;;4985901;28;20430;-63
2023/04/17 05:26:12;;;;;;;30.30;13.15;;;7.90;99.90;;;;;;4987504;28;20030;-64
2023/04/17 05:28:38;;;;;;;31.55;13.35;;;7.90;99.90;;;;;;4989124;28;20534;-63
2023/04/17 05:31:04;;;;;;;27.15;13.18;;;7.90;99.90;;;;;;4987952;28;20042;-64
2023/04/17 05:33:30;;;;;;;32.00;13.40;;;7.90;99.90;;;;;;4985657;28;20042;-64
2023/04/17 05:35:56;;;;;;;28.73;12.93;;;7.90;99.90;;;;;;4987869;28;20080;-62
2023/04/17 05:38:21;;;;;;;31.98;12.95;;;7.90;99.90;;;;;;4987268;28;20454;-66
2023/04/17 05:40:47;;;;;;;28.15;12.63;;;8.00;99.90;;;;;;4988393;28;20031;-63
2023/04/17 05:43:12;;;;;;;27.83;11.52;;;8.00;99.90;;;;;;4992123;28;20146;-63
2023/04/17 05:45:40;;;;;;;26.50;12.25;;;7.90;99.90;;;;;;4990587;28;20430;-66
2023/04/17 05:48:05;;;;;;;26.88;12.15;;;8.00;99.90;;;;;;4990215;28;20034;-66
2023/04/17 05:50:31;;;;;;;26.35;12.15;;;8.00;99.90;;;;;;4990096;28;20080;-64
2023/04/17 05:52:57;;;;;;;25.52;12.32;;;8.00;99.90;;;;;;4990803;28;20123;-66
2023/04/17 05:55:23;;;;;;;27.23;11.85;;;8.00;99.90;;;;;;4989216;28;20042;-64
2023/04/17 05:57:48;;;;;;;25.95;12.00;;;8.00;99.90;;;;;;4991562;28;20042;-64
2023/04/17 06:00:14;;;;;;;27.33;12.07;;;8.00;99.90;;;;;;4988801;28;20483;-64
2023/04/17 06:02:41;;;;;;;27.33;12.50;;;8.00;99.90;;;;;;4991623;28;20742;-66
2023/04/17 06:05:07;;;;;;;27.45;13.07;;;8.00;99.90;;;;;;4989756;28;20437;-68
2023/04/17 06:07:33;;;;;;;24.27;11.05;;;8.00;99.90;;;;;;4989999;28;20062;-64
2023/04/17 06:09:59;;;;;;;24.50;10.90;;;8.00;99.90;;;;;;4990772;28;20551;-67
2023/04/17 06:12:25;;;;;;;26.20;12.02;;;8.10;99.90;;;;;;4991649;28;20740;-65
2023/04/17 06:14:50;;;;;;;25.83;10.85;;;8.10;99.90;;;;;;4992445;28;20038;-64
2023/04/17 06:17:16;;;;;;;23.92;10.95;;;8.10;99.90;;;;;;4991323;28;20031;-66
2023/04/17 06:19:42;;;;;;;24.25;10.43;;;8.10;99.90;;;;;;4992459;28;20034;-66
2023/04/17 06:22:07;;;;;;;25.88;11.05;;;8.10;99.90;;;;;;4983706;28;20034;-69
2023/04/17 06:24:33;;;;;;;23.35;10.50;;;8.00;99.90;;;;;;4990053;28;20525;-66
2023/04/17 06:26:59;;;;;;;21.38;10.52;;;8.00;99.90;;;;;;4991421;28;20463;-66
2023/04/17 06:29:24;;;;;;;20.60;9.90;;;8.00;99.90;;;;;;4990928;28;20034;-65
2023/04/17 06:31:50;;;;;;;30.42;11.75;;;8.00;99.90;;;;;;4989099;28;20041;-66
2023/04/17 06:34:15;;;;;;;23.52;10.00;;;8.00;99.90;;;;;;4972722;28;20030;-65
2023/04/17 06:36:41;;;;;;;24.88;11.05;;;8.00;99.90;;;;;;4972136;28;20027;-65
2023/04/17 06:39:07;;;;;;;22.45;10.13;;;8.10;99.90;;;;;;4982035;28;20489;-65
2023/04/17 06:41:32;;;;;;;19.35;9.48;;;8.10;99.90;;;;;;4990648;28;20049;-63
2023/04/17 06:43:58;;;;;;;21.25;9.77;;;8.10;99.90;;;;;;4991551;28;20467;-64
2023/04/17 06:46:24;;;;;;;21.77;9.82;;;8.10;99.90;;;;;;4990087;28;20045;-63
2023/04/17 06:48:51;;;;;;;20.25;10.13;;;8.10;99.90;;;;;;4991588;28;20031;-66
2023/04/17 06:51:19;;;;;;;23.27;11.10;;;8.10;99.90;;;;;;4986699;28;20034;-62
2023/04/17 06:53:46;;;;;;;25.27;11.48;;;8.10;99.90;;;;;;4981777;28;20030;-64
2023/04/17 06:56:11;;;;;;;25.08;11.18;;;8.10;99.90;;;;;;4990522;28;20065;-63
2023/04/17 06:58:42;;;;;;;23.63;12.13;;;8.10;99.90;;;;;;4988847;28;20058;-62
2023/04/17 07:01:12;;;;;;;27.00;11.40;;;8.10;99.90;;;;;;4990886;28;20116;-64
2023/04/17 07:03:38;;;;;;;23.52;10.90;;;8.20;99.90;;;;;;4986894;28;20035;-67
2023/04/17 07:06:04;;;;;;;22.27;9.93;;;8.20;99.90;;;;;;4990151;28;20034;-67
2023/04/17 07:08:30;;;;;;;20.80;9.85;;;8.20;99.90;;;;;;4988136;28;20050;-69
2023/04/17 07:10:56;;;;;;;21.02;9.00;;;8.20;99.90;;;;;;4986119;28;20132;-65
2023/04/17 07:13:21;;;;;;;21.92;10.10;;;8.20;99.90;;;;;;4990245;28;20030;-67
2023/04/17 07:15:54;;;;;;;19.75;9.30;;;8.30;99.90;;;;;;4990455;28;20030;-68
2023/04/17 07:18:20;;;;;;;20.77;9.35;;;8.30;99.90;;;;;;4972206;28;20031;-64
2023/04/17 07:20:47;;;;;;;21.40;9.88;;;8.40;99.90;;;;;;4990594;28;20426;-67
2023/04/17 07:23:12;;;;;;;20.98;9.68;;;8.40;99.90;;;;;;4988120;28;20117;-68
2023/04/17 07:25:38;;;;;;;25.85;11.60;;;8.50;99.90;;;;;;4990366;28;20104;-65
2023/04/17 07:28:04;;;;;;;21.50;10.15;;;8.60;99.90;;;;;;4989528;28;20063;-66
2023/04/17 07:30:30;;;;;;;30.55;13.48;;;8.60;99.90;;;;;;4990196;28;20475;-64
2023/04/17 07:32:55;;;;;;;22.08;9.95;;;8.50;99.90;;;;;;4990819;28;20478;-64
2023/04/17 07:35:22;;;;;;;33.83;14.05;;;8.40;99.90;;;;;;4989249;28;20049;-64
2023/04/17 07:37:48;;;;;;;25.98;11.75;;;8.40;99.90;;;;;;4988191;28;20038;-65
2023/04/17 07:40:14;;;;;;;25.48;11.82;;;8.50;99.90;;;;;;4989222;28;20552;-65
2023/04/17 07:42:40;;;;;;;16.73;8.45;;;8.60;99.90;;;;;;4972911;28;20562;-64
2023/04/17 07:45:06;;;;;;;14.55;7.78;;;8.60;99.90;;;;;;4990780;28;20025;-65
2023/04/17 07:47:32;;;;;;;11.88;6.90;;;8.70;99.90;;;;;;4988802;28;20482;-64
2023/04/17 07:49:57;;;;;;;12.25;6.45;;;8.70;99.90;;;;;;4990642;28;20026;-63
2023/04/17 07:52:23;;;;;;;13.15;7.15;;;8.70;99.90;;;;;;4988930;28;20109;-67
2023/04/17 07:54:49;;;;;;;13.02;6.75;;;8.80;99.90;;;;;;4988306;28;20113;-66
2023/04/17 07:57:16;;;;;;;13.80;6.97;;;8.70;99.90;;;;;;4989626;28;20037;-69
2023/04/17 07:59:42;;;;;;;13.00;6.65;;;8.80;99.90;;;;;;4987262;28;20594;-68
2023/04/17 08:02:08;;;;;;;15.80;8.18;;;8.80;99.90;;;;;;4990134;28;20053;-65
2023/04/17 08:04:34;;;;;;;17.98;8.85;;;8.80;99.90;;;;;;4987713;28;20106;-67
2023/04/17 08:07:00;;;;;;;15.52;8.20;;;8.80;99.90;;;;;;4989713;28;20047;-67
2023/04/17 08:09:25;;;;;;;16.38;8.50;;;8.80;99.90;;;;;;4987899;28;20034;-67
2023/04/17 08:11:51;;;;;;;13.43;7.38;;;8.90;99.90;;;;;;4989214;28;20042;-70
2023/04/17 08:14:19;;;;;;;15.70;8.02;;;8.80;99.90;;;;;;4987557;28;20061;-69
2023/04/17 08:16:46;;;;;;;15.43;8.48;;;8.80;99.90;;;;;;4989984;28;20485;-65
2023/04/17 08:19:12;;;;;;;15.60;7.90;;;8.80;99.90;;;;;;4989978;28;20078;-63
2023/04/17 08:21:37;;;;;;;19.67;8.35;;;8.90;99.90;;;;;;4989218;28;20034;-64
2023/04/17 08:24:03;;;;;;;18.00;7.80;;;9.10;99.90;;;;;;4989300;28;20034;-64
2023/04/17 08:26:29;;;;;;;14.95;8.23;;;9.30;99.90;;;;;;4986868;28;20033;-63
2023/04/17 08:28:55;;;;;;;19.33;8.60;;;9.20;99.90;;;;;;4981266;28;20031;-63
2023/04/17 08:31:20;;;;;;;16.25;7.90;;;9.20;99.90;;;;;;4988489;28;20066;-63
2023/04/17 08:33:46;;;;;;;16.38;7.88;;;9.20;99.90;;;;;;4989448;28;20027;-64
2023/04/17 08:36:12;;;;;;;16.35;7.78;;;9.20;99.90;;;;;;4988518;28;20049;-64
2023/04/17 08:38:37;;;;;;;18.30;8.27;;;9.20;99.90;;;;;;4988635;28;20114;-63
2023/04/17 08:41:08;;;;;;;14.68;7.28;;;9.20;99.90;;;;;;4988090;28;20477;-66
2023/04/17 08:43:35;;;;;;;15.38;8.50;;;9.10;99.90;;;;;;4986183;28;20038;-64
2023/04/17 08:46:01;;;;;;;17.02;8.73;;;9.10;99.90;;;;;;4983969;28;20455;-68
2023/04/17 08:48:27;;;;;;;18.77;9.48;;;9.10;99.90;;;;;;4988151;28;20019;-66
2023/04/17 08:50:53;;;;;;;15.00;8.18;;;9.20;99.90;;;;;;4988454;28;20434;-68
2023/04/17 08:53:19;;;;;;;17.13;8.38;;;9.20;99.90;;;;;;4987872;28;20499;-65
2023/04/17 08:55:46;;;;;;;15.95;8.80;;;9.20;99.90;;;;;;4988178;28;20030;-63
2023/04/17 08:58:13;;;;;;;17.30;8.95;;;9.30;99.90;;;;;;4988283;28;20027;-63
2023/04/17 09:00:40;;;;;;;18.92;8.63;;;9.30;99.90;;;;;;4986899;28;20029;-63
2023/04/17 09:03:09;;;;;;;16.48;8.57;;;9.30;99.90;;;;;;4987032;28;20038;-64
2023/04/17 09:05:36;;;;;;;16.77;8.45;;;9.20;99.90;;;;;;4985135;28;20031;-64
2023/04/17 09:08:19;;;;;;;20.13;9.38;;;9.20;99.90;;;;;;4988661;28;20054;-66
2023/04/17 09:10:54;;;;;;;15.05;7.93;;;9.20;99.90;;;;;;4971317;28;20041;-65
2023/04/17 09:13:23;;;;;;;14.38;7.68;;;9.30;99.90;;;;;;4985776;28;20033;-67
2023/04/17 09:16:06;;;;;;;15.93;8.75;;;9.40;99.90;;;;;;4988961;28;20064;-63
2023/04/17 09:18:33;;;;;;;14.45;7.57;;;9.40;99.90;;;;;;4989048;28;20105;-66
2023/04/17 09:21:00;;;;;;;14.13;7.20;;;9.40;99.90;;;;;;4971450;28;20041;-67
2023/04/17 09:23:30;;;;;;;18.70;10.93;;;9.50;99.90;;;;;;4984891;28;20036;-64
2023/04/17 09:26:11;;;;;;;30.58;19.65;;;9.50;99.90;;;;;;4986855;28;20042;-64
2023/04/17 09:28:40;;;;;;;20.15;10.55;;;9.60;99.90;;;;;;4986945;28;20049;-63
2023/04/17 09:31:16;;;;;;;16.95;9.05;;;9.60;99.90;;;;;;4989051;28;20489;-65
2023/04/17 09:34:01;;;;;;;19.88;11.82;;;9.80;99.90;;;;;;4980305;28;20106;-63
2023/04/17 09:36:29;;;;;;;14.55;7.80;;;10.00;99.90;;;;;;4987034;28;20041;-64
2023/04/17 09:38:55;;;;;;;15.43;8.32;;;9.90;99.90;;;;;;4988626;28;20034;-65
2023/04/17 09:41:23;;;;;;;19.15;9.13;;;10.00;99.90;;;;;;4986042;28;20505;-66
2023/04/17 09:43:48;;;;;;;16.05;8.32;;;9.80;99.90;;;;;;4986014;28;20038;-65
2023/04/17 09:46:41;;;;;;;18.08;9.65;;;9.70;99.90;;;;;;4988520;28;20040;-64
2023/04/17 09:49:25;;;;;;;17.75;8.73;;;9.60;99.90;;;;;;4986195;28;20054;-64
2023/04/17 09:51:51;;;;;;;14.90;8.20;;;9.50;99.90;;;;;;4986217;28;20035;-65
2023/04/17 09:54:19;;;;;;;18.83;9.13;;;9.40;99.90;;;;;;4985603;28;20053;-66
2023/04/17 09:56:48;;;;;;;16.55;8.45;;;9.40;99.90;;;;;;4987736;28;20034;-65
2023/04/17 09:59:15;;;;;;;15.90;8.38;;;9.30;99.90;;;;;;4987965;28;20030;-65
2023/04/17 10:01:42;;;;;;;18.30;9.02;;;9.20;99.90;;;;;;4982613;28;20034;-66
2023/04/17 10:04:07;;;;;;;17.77;9.13;;;9.20;99.90;;;;;;4987778;28;20030;-66
2023/04/17 10:06:34;;;;;;;18.10;9.05;;;9.10;99.90;;;;;;4979555;28;20030;-66
2023/04/17 10:09:01;;;;;;;20.08;9.43;;;9.10;99.90;;;;;;4983728;28;20062;-66
2023/04/17 10:11:32;;;;;;;19.73;9.38;;;9.00;99.90;;;;;;4986029;28;20037;-67
2023/04/17 10:14:09;;;;;;;20.17;9.68;;;9.00;99.90;;;;;;4988508;28;20459;-67
2023/04/17 10:16:39;;;;;;;17.00;8.48;;;9.00;99.90;;;;;;4977616;28;20077;-65
2023/04/17 10:19:30;;;;;;;17.90;8.85;;;9.00;99.90;;;;;;4986140;28;20027;-67
2023/04/17 10:22:14;;;;;;;;;;;9.00;99.90;;;;;;4982303;28;20501;-65
2023/04/17 10:24:44;;;;;;;17.17;8.55;;;9.10;99.90;;;;;;4984735;28;19914;-65
2023/04/17 10:27:25;;;;;;;19.20;9.93;;;9.10;99.90;;;;;;4980607;28;20510;-65
2023/04/17 10:29:52;;;;;;;16.42;8.18;;;9.20;99.90;;;;;;4987913;28;20038;-65
2023/04/17 10:32:18;;;;;;;17.55;9.40;;;9.30;99.90;;;;;;4984213;28;20023;-63
2023/04/17 10:34:44;;;;;;;18.00;9.43;;;9.30;99.90;;;;;;4990103;28;20112;-66
2023/04/17 10:37:14;;;;;;;18.10;9.50;;;9.30;99.90;;;;;;4989548;28;20030;-66
2023/04/17 10:40:00;;;;;;;19.38;8.77;;;9.40;99.90;;;;;;4989302;28;20022;-65
2023/04/17 10:42:28;;;;;;;15.88;8.43;;;9.50;99.90;;;;;;4991787;28;20113;-66
2023/04/17 10:45:00;;;;;;;17.02;8.93;;;9.50;99.90;;;;;;4990622;28;20072;-66
2023/04/17 10:47:35;;;;;;;19.42;9.70;;;9.60;99.90;;;;;;4990964;28;20092;-67
2023/04/17 10:50:02;;;;;;;17.05;8.80;;;9.80;99.90;;;;;;4991246;28;20042;-68
2023/04/17 10:52:31;;;;;;;14.90;8.20;;;9.90;99.90;;;;;;4989565;28;20034;-67
2023/04/17 10:55:15;;;;;;;15.90;8.70;;;10.00;99.90;;;;;;4990316;28;20034;-65
2023/04/17 10:57:58;;;;;;;18.30;9.02;;;9.90;99.90;;;;;;4989211;28;20049;-65
2023/04/17 11:00:32;;;;;;;15.93;8.38;;;10.00;99.90;;;;;;4990109;28;20472;-66
2023/04/17 11:02:59;;;;;;;18.52;9.20;;;10.20;99.90;;;;;;4990396;28;20487;-66
2023/04/17 11:05:25;;;;;;;16.40;8.75;;;10.70;99.90;;;;;;4972087;28;20685;-66
2023/04/17 11:07:51;;;;;;;18.13;9.55;;;11.30;99.90;;;;;;4985175;28;20065;-66
2023/04/17 11:10:21;;;;;;;14.55;7.82;;;11.80;99.90;;;;;;4989239;28;20041;-66
2023/04/17 11:12:52;;;;;;;13.73;7.80;;;12.10;99.90;;;;;;4990476;28;20273;-68
2023/04/17 11:15:28;;;;;;;12.15;6.90;;;12.80;99.90;;;;;;4989964;28;20390;-63
2023/04/17 11:17:55;;;;;;;9.95;5.80;;;13.10;99.90;;;;;;4993583;28;20042;-66
2023/04/17 11:20:22;;;;;;;10.30;5.72;;;13.00;99.90;;;;;;4988404;28;20074;-65
2023/04/17 11:22:48;;;;;;;10.95;6.38;;;12.80;99.90;;;;;;4989575;28;20034;-64
2023/04/17 11:25:25;;;;;;;10.05;6.00;;;12.40;99.90;;;;;;4988897;28;20037;-65
2023/04/17 11:28:01;;;;;;;14.77;7.93;;;12.20;99.90;;;;;;4990220;28;20034;-63
2023/04/17 11:30:35;;;;;;;14.48;8.27;;;12.00;99.90;;;;;;4987725;28;20394;-67
2023/04/17 11:33:03;;;;;;;16.25;7.95;;;11.70;99.90;;;;;;4977643;28;20027;-65
2023/04/17 11:35:36;;;;;;;13.45;7.82;;;11.50;99.90;;;;;;4986884;28;20023;-69
2023/04/17 11:38:22;;;;;;;14.88;7.90;;;11.30;99.90;;;;;;4989331;28;20034;-65
2023/04/17 11:40:52;;;;;;;13.10;7.63;;;11.30;99.90;;;;;;4986629;28;20061;-64
2023/04/17 11:43:22;;;;;;;15.30;8.10;;;11.20;99.90;;;;;;4990827;28;20081;-63
2023/04/17 11:45:50;;;;;;;13.75;7.72;;;11.10;99.90;;;;;;4989714;28;20014;-66
2023/04/17 11:48:21;;;;;;;13.60;7.63;;;11.00;99.90;;;;;;4988925;28;20030;-64
2023/04/17 11:50:47;;;;;;;25.67;8.07;;;11.10;99.90;;;;;;4989057;28;20030;-65
2023/04/17 11:53:15;;;;;;;16.85;8.90;;;11.20;99.90;;;;;;4989289;28;20093;-65
2023/04/17 11:55:41;;;;;;;14.63;8.43;;;11.60;99.90;;;;;;4989241;28;20053;-65
2023/04/17 11:58:09;;;;;;;13.70;7.90;;;11.80;99.90;;;;;;4986287;28;20771;-64
2023/04/17 12:00:36;;;;;;;16.58;8.18;;;11.80;99.90;;;;;;4988863;28;20034;-65
2023/04/17 12:03:30;;;;;;;15.10;8.75;;;11.80;99.90;;;;;;4989595;28;20120;-62
2023/04/17 12:06:03;;;;;;;16.65;8.13;;;11.90;99.90;;;;;;4988350;28;20076;-64
2023/04/17 12:08:30;;;;;;;17.88;7.55;;;12.20;99.90;;;;;;4980416;28;20515;-66
2023/04/17 12:10:56;;;;;;;14.00;7.70;;;12.60;99.90;;;;;;4988371;28;20041;-66
2023/04/17 12:13:23;;;;;;;12.43;7.25;;;12.90;99.90;;;;;;4990262;28;20074;-65
2023/04/17 12:15:49;;;;;;;13.20;6.70;;;13.10;99.90;;;;;;4988302;28;20034;-66
2023/04/17 12:18:14;;;;;;;12.05;6.90;;;13.40;99.90;;;;;;4986281;28;20038;-67
2023/04/17 12:20:40;;;;;;;11.20;6.68;;;13.40;99.90;;;;;;4985658;28;21504;-64
2023/04/17 12:23:06;;;;;;;13.07;7.30;;;13.50;99.90;;;;;;4989146;28;20034;-65
2023/04/17 12:25:32;;;;;;;13.18;6.85;;;13.60;99.90;;;;;;5001267;28;20026;-68
2023/04/17 12:27:59;;;;;;;10.38;6.35;;;13.50;99.90;;;;;;4987797;28;20070;-65
2023/04/17 12:30:26;;;;;;;10.63;6.72;;;13.20;99.90;;;;;;4986263;28;20031;-67
2023/04/17 12:32:52;;;;;;;11.77;6.47;;;13.30;99.90;;;;;;4985542;28;20319;-68
2023/04/17 12:35:19;;;;;;;10.80;5.90;;;13.40;99.90;;;;;;4988119;28;20030;-66
2023/04/17 12:37:47;;;;;;;11.40;6.40;;;13.60;99.90;;;;;;4986752;28;20035;-66
2023/04/17 12:40:20;;;;;;;11.98;6.82;;;13.70;99.90;;;;;;4982648;28;20475;-68
2023/04/17 12:42:47;;;;;;;12.02;6.80;;;13.90;99.90;;;;;;4966055;28;20030;-66